EDDPEDDE

Guest
Details From EDDP - Leipzig-halle
To EDDE - Erfurt
Flight Number -
Tags Generated
Created
Modified
Stats Distance 54 nm / 100 km
Max Altitude 0 ft / 0 m
Waypoints 2
Social Downloads 0
Likes 0
Share VATSIM

Download

Looking for another format? Having issues loading an existing format? Contact us
Advertisement - Login to hide

Notes

Generated

Route

EDDP EDDE

ID Type Via Altitude Latitude Longitude Leg Dist Tot Dist Heading (true) Name
O EDDP APT - 0 ft / 0 m 51.41160˚ 12.20459˚ - 0 nm - -
O EDDE APT - 0 ft / 0 m 50.98148˚ 10.93975˚ 54 nm 54 nm 242° / 241° -

Altitude Profile

Advertisement - Login to hide

EDDP

Details ICAO EDDP (LEJ)
Name Leipzig-Halle
Region Germany - Civil
Timezone Europe/Berlin (UTC+2.0)
Stats Elevation 464 ft / 141 m (AMSL)
Location 51.422631° 12.236042°
Runways 2
Magnetic Variation 3.454° E

METAR

EDDP 241950Z VRB02KT CAVOK 19/12 Q1020 NOSIG

Decode

TAF

TAF EDDP 241700Z 2418/2518 07008KT CAVOK

Decode

Departure Runways

ID Width Length Bearing (true) Bearing (mag) Surface Threshold Offset Overrun Length
08L 148 ft / 45 m 11,776 ft / 3,589 m 85.70° 82.25° Concrete 0 ft / 0 m 0 ft / 0 m
08R 197 ft / 60 m 11,777 ft / 3,590 m 85.68° 82.23° Concrete 0 ft / 0 m 0 ft / 0 m
26L 197 ft / 60 m 11,777 ft / 3,590 m 265.72° 262.27° Concrete 0 ft / 0 m 0 ft / 0 m
26R 148 ft / 45 m 11,776 ft / 3,589 m 265.74° 262.29° Concrete 0 ft / 0 m 0 ft / 0 m

EDDE

Details ICAO EDDE (ERF)
Name Erfurt
Region Germany - Civil
Timezone Europe/Berlin (UTC+2.0)
Stats Elevation 1,035 ft / 315 m (AMSL)
Location 50.979808° 10.958105°
Runways 1
Magnetic Variation 3.083° E

METAR

EDDE 241950Z 09003KT 060V130 9999 -RA NSC 15/14 Q1019 NOSIG

Decode

TAF

TAF TAF EDDE 241700Z 2418/2518 07006KT 6000 BKN030 PROB40 TEMPO 2418/2422 4000 RA BKN012 PROB30 TEMPO 2421/2501 1600 TSRA BKN004 SCT014CB BKN020 PROB30 TEMPO 2501/2507 1300 BCFG BKN002

Decode

Destination Runways

ID Width Length Bearing (true) Bearing (mag) Surface Threshold Offset Overrun Length
10 164 ft / 50 m 8,523 ft / 2,598 m 98.24° 95.16° Asphalt 0 ft / 0 m 0 ft / 0 m
28 164 ft / 50 m 8,523 ft / 2,598 m 278.27° 275.19° Asphalt 656 ft / 200 m 0 ft / 0 m

Approach Navaids

Runway Type Ident Frequency Range Bearing (true) Bearing (mag) Slope Elevation
10 Localiser IERE 108.30 MHz 18 nm / 33 km 97.72° 94.64° - 1,016 ft / 310 m (AMSL)
10 Glidescope IERE 108.30 MHz 10 nm / 19 km 98.25° 95.17° 3.00° 1,035 ft / 315 m (AMSL)
28 Localiser IERW 109.90 MHz 18 nm / 33 km 277.68° 274.59° - 1,025 ft / 312 m (AMSL)
28 Glidescope IERW 109.90 MHz 10 nm / 19 km 278.25° 275.17° 3.00° 1,035 ft / 315 m (AMSL)

Popular Alternatives